Time;durP1;ratioP1;P1;durP2;ratioP2;P2;SDS_P1;SDS_P2;PMS_P1;PMS_P2;Temp;Humidity;BMP_temperature;BMP_pressure;BME280_temperature;BME280_humidity;BME280_pressure;Samples;Min_cycle;Max_cycle;Signal;HPM_P1;HPM_P2
2022/10/31 00:01:11;;;;;;;4.90;2.10;;;;;;;21.50;46.89;102001.34;4198407;28;20553;-67
2022/10/31 00:03:15;;;;;;;2.38;1.88;;;;;;;21.52;46.62;101993.53;4197823;28;20029;-67
2022/10/31 00:05:19;;;;;;;3.35;1.95;;;;;;;21.52;46.71;101999.94;4187501;28;20094;-66
2022/10/31 00:07:20;;;;;;;3.65;1.75;;;;;;;21.53;46.67;102001.66;4198485;28;20036;-66
2022/10/31 00:09:21;;;;;;;1.83;1.60;;;;;;;21.54;46.39;101991.34;4192007;28;20105;-66
2022/10/31 00:11:23;;;;;;;3.33;1.52;;;;;;;21.53;46.75;102001.66;4182698;28;20451;-66
2022/10/31 00:13:24;;;;;;;5.65;1.60;;;;;;;21.55;46.62;101993.03;4185205;28;20097;-67
2022/10/31 00:15:26;;;;;;;1.95;1.67;;;;;;;21.56;46.66;101991.94;4196525;28;20032;-66
2022/10/31 00:17:27;;;;;;;5.47;1.85;;;;;;;21.32;46.73;101949.59;4198844;28;20093;-67
2022/10/31 00:19:28;;;;;;;3.92;1.85;;;;;;;21.57;46.66;101990.81;4183329;28;20082;-67
2022/10/31 00:21:30;;;;;;;2.75;1.80;;;;;;;21.56;46.68;101989.97;4190433;28;20434;-66
2022/10/31 00:23:31;;;;;;;5.45;1.70;;;;;;;21.58;46.45;101992.53;4198730;28;20549;-68
2022/10/31 00:25:38;;;;;;;3.45;1.65;;;;;;;21.57;46.71;101997.22;4190538;28;20071;-67
2022/10/31 00:27:42;;;;;;;3.92;1.98;;;;;;;21.50;46.57;101984.63;4198863;28;20097;-67
2022/10/31 00:29:43;;;;;;;3.03;1.60;;;;;;;21.58;46.50;101995.31;4197599;28;20049;-66
2022/10/31 00:31:47;;;;;;;3.78;1.73;;;;;;;21.63;46.51;102000.09;4194094;28;20066;-67
2022/10/31 00:33:49;;;;;;;3.87;1.97;;;;;;;21.61;46.65;101994.78;4199258;28;20020;-69
2022/10/31 00:35:53;;;;;;;2.42;1.80;;;;;;;21.63;46.47;101989.78;4194462;28;20118;-70
2022/10/31 00:37:54;;;;;;;2.83;1.65;;;;;;;21.63;46.49;101989.78;4197855;28;20437;-67
2022/10/31 00:39:56;;;;;;;4.30;1.67;;;;;;;21.65;46.33;101983.97;4199159;28;20061;-69
2022/10/31 00:41:57;;;;;;;4.38;1.77;;;;;;;21.65;46.35;101984.78;4194012;28;20040;-70
2022/10/31 00:44:01;;;;;;;2.50;1.55;;;;;;;21.65;46.73;101976.44;4189130;28;20045;-69
2022/10/31 00:46:02;;;;;;;2.75;1.83;;;;;;;21.65;46.77;101970.88;4197795;28;20098;-69
2022/10/31 00:48:07;;;;;;;2.47;1.67;;;;;;;21.54;46.76;101952.38;4193393;28;20037;-68
2022/10/31 00:50:08;;;;;;;2.97;1.67;;;;;;;21.60;46.71;101968.03;4194751;28;20036;-68
2022/10/31 00:52:09;;;;;;;2.95;1.58;;;;;;;21.66;46.46;101972.53;4198872;28;20040;-68
2022/10/31 00:54:11;;;;;;;19.08;3.17;;;;;;;21.56;46.46;101958.50;4193810;28;20487;-68
2022/10/31 00:56:15;;;;;;;12.20;1.63;;;;;;;21.51;46.57;101952.88;4193029;28;20028;-67
2022/10/31 00:58:16;;;;;;;3.30;1.50;;;;;;;21.69;46.72;101979.56;4198496;28;20040;-68
2022/10/31 01:00:20;;;;;;;2.25;1.70;;;;;;;21.55;46.75;101962.41;4197196;28;20480;-70
2022/10/31 01:02:22;;;;;;;4.75;1.67;;;;;;;21.70;46.36;101990.41;4198919;28;20028;-70
2022/10/31 01:04:32;;;;;;;3.28;1.92;;;;;;;21.68;46.51;101975.09;4199455;28;20463;-69
2022/10/31 01:06:36;;;;;;;4.57;2.00;;;;;;;21.71;46.51;101989.31;4198167;28;20049;-69
2022/10/31 01:08:38;;;;;;;5.45;1.70;;;;;;;21.46;46.38;101959.22;4198429;28;20036;-69
2022/10/31 01:10:39;;;;;;;3.40;1.73;;;;;;;21.66;46.34;101983.69;4198274;28;20052;-69
2022/10/31 01:12:44;;;;;;;4.10;1.58;;;;;;;21.73;46.49;101989.91;4198012;28;20044;-68
2022/10/31 01:14:45;;;;;;;2.30;1.58;;;;;;;21.67;46.64;101987.31;4198850;28;20033;-68
2022/10/31 01:16:46;;;;;;;3.72;1.70;;;;;;;21.61;46.51;101969.69;4186656;28;20071;-68
2022/10/31 01:18:51;;;;;;;8.85;1.83;;;;;;;21.75;46.40;101993.25;4181938;28;20037;-68
2022/10/31 01:21:04;;;;;;;8.32;1.50;;;;;;;21.75;46.47;101998.00;4180434;28;20037;-68
2022/10/31 01:23:09;;;;;;;4.03;2.08;;;;;;;21.63;46.47;101970.28;4197541;28;20028;-68
2022/10/31 01:25:17;;;;;;;6.18;2.55;;;;;;;21.76;46.64;101989.41;4198075;28;20028;-69
2022/10/31 01:27:21;;;;;;;3.78;1.60;;;;;;;21.71;46.40;101985.69;4198303;28;20036;-69
2022/10/31 01:29:23;;;;;;;3.70;1.85;;;;;;;21.77;46.28;102002.22;4197829;28;20105;-69
2022/10/31 01:31:26;;;;;;;2.03;1.70;;;;;;;21.50;46.29;101959.56;4197888;28;20037;-68
2022/10/31 01:33:28;;;;;;;3.92;1.65;;;;;;;21.79;46.54;102005.56;4190271;28;20033;-68
2022/10/31 01:35:29;;;;;;;2.45;1.50;;;;;;;21.79;46.36;102004.72;4197751;28;20055;-68
2022/10/31 01:37:31;;;;;;;6.00;1.40;;;;;;;21.78;46.45;102000.25;4198265;28;20036;-68
2022/10/31 01:39:32;;;;;;;2.30;1.75;;;;;;;21.75;46.35;101987.69;4198205;28;20036;-68
2022/10/31 01:41:37;;;;;;;3.13;1.70;;;;;;;21.79;46.25;101994.41;4198023;28;20460;-68
2022/10/31 01:43:55;;;;;;;2.88;1.70;;;;;;;21.80;46.52;101995.25;4198207;28;20020;-69
2022/10/31 01:45:56;;;;;;;3.35;1.73;;;;;;;21.81;46.57;101997.81;4186464;28;20041;-68
2022/10/31 01:47:57;;;;;;;2.45;1.80;;;;;;;21.76;46.32;101994.97;4191965;28;20033;-69
2022/10/31 01:50:02;;;;;;;2.65;1.55;;;;;;;21.82;46.57;102004.22;4195409;28;20029;-68
2022/10/31 01:52:06;;;;;;;;;;;;;;;21.81;46.31;102002.53;4198082;28;20040;-68
2022/10/31 01:54:12;;;;;;;3.22;1.73;;;;;;;21.87;46.12;102000.66;4198338;28;19966;-69
2022/10/31 01:56:17;;;;;;;5.93;1.88;;;;;;;21.87;46.51;101997.84;4192053;28;20449;-66
2022/10/31 01:58:27;;;;;;;5.22;1.75;;;;;;;21.86;46.31;102007.31;4189345;28;20048;-68
2022/10/31 02:00:31;;;;;;;4.97;1.95;;;;;;;21.81;46.17;101997.81;4196334;28;20433;-68
2022/10/31 02:02:33;;;;;;;2.88;2.00;;;;;;;21.75;45.87;101987.69;4197450;28;20077;-67
2022/10/31 02:04:35;;;;;;;5.53;2.13;;;;;;;21.81;46.17;102003.38;4196703;28;20036;-67
2022/10/31 02:06:49;;;;;;;3.22;1.60;;;;;;;21.79;46.37;102008.34;4197040;28;20096;-68
2022/10/31 02:08:52;;;;;;;2.13;1.65;;;;;;;21.74;46.59;101996.31;4187334;28;20206;-69
2022/10/31 02:10:56;;;;;;;1.70;1.25;;;;;;;21.80;46.50;102007.25;4194473;28;20101;-68
2022/10/31 02:12:59;;;;;;;2.58;1.70;;;;;;;21.82;46.41;102007.84;4194343;28;20089;-67
2022/10/31 02:15:05;;;;;;;6.32;1.80;;;;;;;21.82;46.53;102012.56;4195762;28;20446;-69
2022/10/31 02:17:07;;;;;;;2.70;1.70;;;;;;;21.62;46.57;101971.38;4197315;28;20033;-68
2022/10/31 02:19:18;;;;;;;2.63;1.50;;;;;;;21.85;46.63;102002.84;4197884;28;20040;-68
2022/10/31 02:21:24;;;;;;;3.72;1.70;;;;;;;21.75;46.39;101984.06;4197530;28;20036;-68
2022/10/31 02:23:43;;;;;;;4.38;1.98;;;;;;;21.87;46.27;102003.44;4196717;28;20094;-67
2022/10/31 02:26:09;;;;;;;5.72;1.98;;;;;;;21.87;46.47;102012.63;4196899;28;20101;-68
2022/10/31 02:28:23;;;;;;;3.60;2.00;;;;;;;21.89;46.24;102010.41;4196936;28;20048;-70
2022/10/31 02:30:47;;;;;;;4.55;1.90;;;;;;;21.89;46.31;102013.19;4195784;28;20041;-67
2022/10/31 02:33:09;;;;;;;6.57;2.13;;;;;;;21.89;46.02;102009.56;4163023;28;20110;-68
2022/10/31 02:35:32;;;;;;;4.63;1.90;;;;;;;21.83;46.22;102006.72;4196462;28;20102;-68
2022/10/31 02:38:11;;;;;;;3.20;1.95;;;;;;;21.88;45.94;102021.81;4189571;28;20163;-68
2022/10/31 02:40:37;;;;;;;4.20;1.80;;;;;;;21.90;45.93;102012.13;4145828;28;20552;-67
2022/10/31 02:42:57;;;;;;;3.13;2.30;;;;;;;21.73;46.08;101989.06;4186576;28;20040;-68
2022/10/31 02:45:12;;;;;;;3.80;2.10;;;;;;;21.70;46.26;101984.00;4196758;28;20032;-68
2022/10/31 02:47:27;;;;;;;4.07;2.45;;;;;;;21.78;46.15;101998.31;4194371;28;20081;-68
2022/10/31 02:49:46;;;;;;;6.90;2.22;;;;;;;21.91;45.75;102019.38;4183928;28;20853;-68
2022/10/31 02:51:47;;;;;;;4.53;1.88;;;;;;;21.93;46.08;102021.88;4197281;28;20052;-68
2022/10/31 02:53:49;;;;;;;3.70;2.10;;;;;;;21.93;46.06;102021.88;4200174;28;20533;-70
2022/10/31 02:56:11;;;;;;;6.97;2.10;;;;;;;21.93;46.22;102019.09;4197782;28;20041;-67
2022/10/31 02:58:17;;;;;;;25.60;3.45;;;;;;;21.94;46.24;102012.41;4199482;28;20078;-68
2022/10/31 03:00:18;;;;;;;6.38;2.20;;;;;;;21.93;46.12;102005.16;4199908;28;20438;-69
2022/10/31 03:02:34;;;;;;;8.77;1.98;;;;;;;21.62;46.14;101962.19;4199236;28;20028;-68
2022/10/31 03:04:58;;;;;;;6.53;2.20;;;;;;;21.42;46.02;101933.00;4192876;28;20032;-68
2022/10/31 03:07:23;;;;;;;7.75;2.20;;;;;;;21.91;46.07;102001.81;4180722;28;20048;-68
2022/10/31 03:09:38;;;;;;;4.25;2.20;;;;;;;21.86;45.94;101998.97;4194758;28;20032;-71
2022/10/31 03:11:53;;;;;;;3.67;2.17;;;;;;;21.65;46.34;101959.72;4197450;28;20048;-70
2022/10/31 03:14:22;;;;;;;2.75;2.40;;;;;;;21.80;46.06;101987.75;4200253;28;20048;-69
2022/10/31 03:16:35;;;;;;;6.13;2.20;;;;;;;21.81;46.10;101991.41;4189702;28;20033;-70
2022/10/31 03:19:10;;;;;;;6.43;2.00;;;;;;;21.65;46.10;101970.03;4183394;28;20041;-70
2022/10/31 03:21:23;;;;;;;3.90;2.30;;;;;;;21.79;46.28;101988.84;4189507;28;20109;-71
2022/10/31 03:23:26;;;;;;;5.63;1.80;;;;;;;21.60;46.28;101956.88;4217235;28;20032;-69
2022/10/31 03:25:32;;;;;;;2.90;2.10;;;;;;;21.75;46.20;101982.13;4217061;28;20421;-69
2022/10/31 03:27:36;;;;;;;3.90;1.98;;;;;;;21.74;46.11;101979.59;4197668;28;20345;-69
2022/10/31 03:29:45;;;;;;;7.82;2.47;;;;;;;21.71;46.61;101972.59;4200162;28;20032;-70
2022/10/31 03:31:55;;;;;;;2.33;1.80;;;;;;;21.51;46.28;101948.16;4199602;28;20094;-69
2022/10/31 03:33:59;;;;;;;3.75;1.95;;;;;;;21.72;46.27;101970.69;4199923;28;20082;-70
2022/10/31 03:36:07;;;;;;;4.43;2.00;;;;;;;21.72;46.52;101970.69;4199547;28;20113;-70
2022/10/31 03:38:13;;;;;;;2.42;1.75;;;;;;;21.70;46.18;101970.91;4206627;28;20344;-71
2022/10/31 03:40:16;;;;;;;4.00;2.20;;;;;;;21.69;46.20;101966.47;4216361;28;20077;-70
2022/10/31 03:42:23;;;;;;;3.40;2.13;;;;;;;21.66;46.30;101955.00;4210689;28;20463;-70
2022/10/31 03:44:29;;;;;;;2.88;2.15;;;;;;;21.67;46.66;101957.53;4199285;28;20049;-69
2022/10/31 03:46:36;;;;;;;2.78;1.90;;;;;;;21.66;46.63;101955.81;4194898;28;20101;-69
2022/10/31 03:48:38;;;;;;;3.10;2.13;;;;;;;21.67;46.32;101951.97;4201959;28;20062;-69
2022/10/31 03:50:52;;;;;;;3.60;2.15;;;;;;;21.66;46.53;101955.00;4199810;28;20036;-69
2022/10/31 03:53:08;;;;;;;3.53;2.10;;;;;;;21.66;46.38;101947.47;4190588;28;20033;-69
2022/10/31 03:55:40;;;;;;;3.13;2.08;;;;;;;21.63;46.43;101950.81;4190163;28;20110;-68
2022/10/31 03:58:21;;;;;;;3.75;2.17;;;;;;;21.63;46.68;101938.81;4191487;28;20040;-68
2022/10/31 04:00:22;;;;;;;3.22;2.00;;;;;;;21.66;46.39;101938.28;4199428;28;20662;-69
2022/10/31 04:02:45;;;;;;;5.93;2.10;;;;;;;21.28;46.52;101874.06;4180929;28;20041;-70
2022/10/31 04:04:49;;;;;;;4.72;2.08;;;;;;;21.66;46.44;101930.75;4198699;28;20029;-69
2022/10/31 04:06:56;;;;;;;5.07;2.20;;;;;;;21.64;46.31;101932.97;4206396;28;20048;-69
2022/10/31 04:09:06;;;;;;;3.60;1.92;;;;;;;21.64;46.33;101927.41;4215904;28;20040;-70
2022/10/31 04:11:12;;;;;;;4.05;2.20;;;;;;;21.62;46.35;101926.81;4215872;28;20437;-71
2022/10/31 04:13:20;;;;;;;3.65;2.20;;;;;;;21.58;46.38;101917.31;4214971;28;20048;-71
2022/10/31 04:15:23;;;;;;;3.85;2.03;;;;;;;21.62;46.75;101921.25;4215974;28;20089;-69
2022/10/31 04:17:29;;;;;;;4.75;2.28;;;;;;;21.49;46.46;101905.81;4216361;28;20024;-70
2022/10/31 04:19:32;;;;;;;2.95;1.95;;;;;;;21.59;46.67;101909.81;4215613;28;20032;-69
2022/10/31 04:21:36;;;;;;;2.85;2.20;;;;;;;21.48;46.20;101900.47;4216008;28;20040;-71
2022/10/31 04:23:37;;;;;;;3.97;1.92;;;;;;;21.58;46.31;101914.53;4215112;28;20024;-70
2022/10/31 04:25:41;;;;;;;6.25;2.30;;;;;;;21.46;46.30;101905.47;4195103;28;20029;-70
2022/10/31 04:27:42;;;;;;;4.53;2.30;;;;;;;21.59;46.37;101927.34;4182724;28;20086;-70
2022/10/31 04:29:44;;;;;;;5.40;1.90;;;;;;;21.60;46.56;101934.59;4192703;28;20102;-69
2022/10/31 04:31:45;;;;;;;3.08;1.80;;;;;;;21.60;46.44;101930.97;4198711;28;20445;-69
2022/10/31 04:33:46;;;;;;;3.63;2.42;;;;;;;21.59;46.48;101930.13;4199167;28;20078;-68
2022/10/31 04:35:48;;;;;;;3.03;1.73;;;;;;;21.59;46.19;101921.78;4198294;28;20040;-68
2022/10/31 04:37:49;;;;;;;5.13;2.03;;;;;;;21.49;46.69;101902.19;4198868;28;20601;-68
2022/10/31 04:39:53;;;;;;;2.78;2.05;;;;;;;21.58;46.57;101920.09;4197594;28;20090;-69
2022/10/31 04:41:57;;;;;;;4.70;2.50;;;;;;;21.57;46.40;101901.69;4197960;28;20422;-70
2022/10/31 04:43:58;;;;;;;2.22;2.03;;;;;;;21.56;46.36;101911.16;4197381;28;20471;-68
2022/10/31 04:45:59;;;;;;;3.10;2.00;;;;;;;21.56;46.61;101905.59;4199186;28;20090;-70
2022/10/31 04:48:01;;;;;;;3.95;2.17;;;;;;;21.54;46.58;101902.25;4198687;28;20468;-69
2022/10/31 04:50:05;;;;;;;2.50;1.65;;;;;;;21.42;46.63;101876.47;4201151;28;20498;-68
2022/10/31 04:52:07;;;;;;;4.60;1.73;;;;;;;21.53;46.64;101881.03;4215522;28;20113;-68
2022/10/31 04:54:17;;;;;;;3.47;1.92;;;;;;;21.54;46.47;101879.97;4215180;28;20330;-70
2022/10/31 04:56:19;;;;;;;3.10;1.95;;;;;;;21.54;46.31;101885.53;4214817;28;20438;-70
2022/10/31 04:58:20;;;;;;;2.55;1.83;;;;;;;21.54;46.62;101886.38;4214954;28;20098;-69
2022/10/31 05:00:28;;;;;;;6.60;1.85;;;;;;;21.53;46.44;101879.13;4215224;28;20097;-67
2022/10/31 05:02:32;;;;;;;5.13;1.92;;;;;;;21.53;46.37;101872.69;4214155;28;20125;-68
2022/10/31 05:04:33;;;;;;;2.60;1.85;;;;;;;21.52;46.34;101873.78;4214732;28;20044;-69
2022/10/31 05:06:35;;;;;;;2.80;1.70;;;;;;;21.50;46.51;101867.66;4197313;28;20472;-69
2022/10/31 05:08:36;;;;;;;5.22;1.80;;;;;;;21.51;46.33;101866.53;4211932;28;20169;-71
2022/10/31 05:10:37;;;;;;;3.47;1.83;;;;;;;21.51;46.75;101855.41;4215226;28;20028;-69
2022/10/31 05:13:00;;;;;;;4.03;2.22;;;;;;;21.50;46.42;101859.31;4214748;28;20036;-68
2022/10/31 05:15:02;;;;;;;2.10;1.70;;;;;;;21.51;46.65;101850.69;4214503;28;20035;-68
2022/10/31 05:17:03;;;;;;;2.28;1.70;;;;;;;21.51;46.47;101850.69;4215151;28;20478;-68
2022/10/31 05:19:04;;;;;;;3.67;1.88;;;;;;;21.51;46.65;101852.63;4215192;28;20024;-68
2022/10/31 05:21:05;;;;;;;2.83;1.70;;;;;;;21.50;46.54;101845.38;4213990;28;20040;-68
2022/10/31 05:23:07;;;;;;;3.95;2.10;;;;;;;21.50;46.71;101850.94;4214215;28;20093;-68
2022/10/31 05:25:08;;;;;;;3.45;2.10;;;;;;;21.49;46.65;101852.06;4196383;28;20040;-68
2022/10/31 05:27:09;;;;;;;3.35;1.98;;;;;;;21.49;46.38;101854.84;4204303;28;20094;-68
2022/10/31 05:29:13;;;;;;;5.60;1.90;;;;;;;21.38;46.67;101834.38;4198056;28;20450;-68
2022/10/31 05:31:15;;;;;;;2.35;1.80;;;;;;;21.50;46.38;101856.50;4198032;28;20040;-68
2022/10/31 05:33:16;;;;;;;4.25;2.13;;;;;;;21.49;46.60;101854.84;4198321;28;20034;-68
2022/10/31 05:35:26;;;;;;;4.68;1.80;;;;;;;21.49;46.60;101863.19;4197948;28;20524;-68
2022/10/31 05:37:30;;;;;;;3.40;1.88;;;;;;;21.38;46.56;101847.47;4198525;28;20552;-68
2022/10/31 05:39:31;;;;;;;1.90;1.60;;;;;;;21.48;46.60;101867.06;4198262;28;20089;-69
2022/10/31 05:41:33;;;;;;;3.22;1.88;;;;;;;21.48;46.41;101864.28;4197591;28;20074;-70
2022/10/31 05:43:34;;;;;;;1.67;1.50;;;;;;;21.48;46.80;101875.41;4196493;28;20036;-68
2022/10/31 05:45:38;;;;;;;2.65;1.90;;;;;;;21.45;46.62;101856.47;4184198;28;20074;-70
2022/10/31 05:47:39;;;;;;;3.15;2.10;;;;;;;21.48;46.60;101858.72;4181150;28;20399;-68
2022/10/31 05:49:43;;;;;;;3.15;2.03;;;;;;;21.46;46.54;101866.50;4199525;28;20090;-70
2022/10/31 05:51:44;;;;;;;2.40;1.88;;;;;;;21.46;46.86;101866.50;4214693;28;20044;-68
2022/10/31 05:53:47;;;;;;;2.85;1.80;;;;;;;21.35;46.67;101850.75;4213959;28;20024;-68
2022/10/31 05:55:48;;;;;;;4.15;2.40;;;;;;;21.46;46.58;101864.53;4214285;28;20044;-68
2022/10/31 05:57:49;;;;;;;3.55;1.83;;;;;;;21.47;46.50;101863.44;4214650;28;20074;-68
2022/10/31 05:59:53;;;;;;;2.90;1.60;;;;;;;21.46;46.74;101869.28;4214628;28;20044;-68
2022/10/31 06:01:54;;;;;;;4.22;1.90;;;;;;;21.46;46.61;101852.56;4214561;28;20040;-70
2022/10/31 06:03:56;;;;;;;2.10;1.52;;;;;;;21.43;46.39;101850.31;4214420;28;20106;-70
2022/10/31 06:05:57;;;;;;;1.70;1.60;;;;;;;21.37;46.33;101856.94;4213816;28;20036;-70
2022/10/31 06:07:58;;;;;;;2.58;1.83;;;;;;;21.31;46.63;101829.03;4197966;28;20036;-71
2022/10/31 06:10:01;;;;;;;2.35;1.73;;;;;;;21.46;46.71;101849.78;4203549;28;20495;-70
2022/10/31 06:12:03;;;;;;;2.60;1.90;;;;;;;21.45;46.24;101854.53;4213566;28;20051;-70
2022/10/31 06:14:05;;;;;;;2.40;1.63;;;;;;;21.45;46.44;101854.53;4213661;28;20039;-70
2022/10/31 06:16:10;;;;;;;2.50;1.80;;;;;;;21.33;46.85;101828.75;4213865;28;20056;-70
2022/10/31 06:18:11;;;;;;;2.70;2.00;;;;;;;21.45;46.66;101854.53;4214116;28;20036;-70
2022/10/31 06:20:15;;;;;;;2.92;2.03;;;;;;;21.45;46.63;101850.91;4214620;28;20471;-70
2022/10/31 06:22:17;;;;;;;2.58;1.70;;;;;;;21.46;46.54;101849.78;4199392;28;20029;-70
2022/10/31 06:24:18;;;;;;;2.47;1.90;;;;;;;21.45;46.56;101848.94;4197879;28;20032;-70
2022/10/31 06:26:19;;;;;;;3.55;1.52;;;;;;;21.45;46.64;101848.94;4197422;28;20094;-70
2022/10/31 06:28:20;;;;;;;4.88;1.80;;;;;;;21.44;46.74;101836.13;4196918;28;20100;-69
2022/10/31 06:30:22;;;;;;;1.75;1.60;;;;;;;21.44;46.75;101840.84;4211172;28;20529;-70
2022/10/31 06:32:23;;;;;;;3.63;2.22;;;;;;;21.38;46.45;101830.75;4214191;28;20089;-70
2022/10/31 06:34:24;;;;;;;1.85;1.63;;;;;;;21.43;46.86;101844.72;4211985;28;20469;-70
2022/10/31 06:36:26;;;;;;;2.67;1.85;;;;;;;21.43;46.61;101844.72;4197348;28;20373;-70
2022/10/31 06:38:28;;;;;;;2.83;2.17;;;;;;;21.44;46.47;101846.41;4201495;28;20085;-70
2022/10/31 06:40:29;;;;;;;3.45;1.90;;;;;;;21.43;46.38;101844.72;4185953;28;20103;-70
2022/10/31 06:42:36;;;;;;;2.28;1.90;;;;;;;21.33;46.54;101822.34;4195734;28;20079;-70
2022/10/31 06:44:37;;;;;;;4.68;1.98;;;;;;;21.44;46.59;101846.41;4202166;28;20090;-70
2022/10/31 06:46:39;;;;;;;3.05;1.85;;;;;;;21.44;46.63;101846.41;4197212;28;20486;-68
2022/10/31 06:48:52;;;;;;;2.03;1.50;;;;;;;21.30;46.88;101818.97;4197645;28;20040;-70
2022/10/31 06:50:56;;;;;;;3.75;2.00;;;;;;;21.39;46.90;101827.72;4198618;28;20029;-70
2022/10/31 06:52:59;;;;;;;2.50;1.63;;;;;;;21.42;46.66;101843.06;4195826;28;20044;-69
2022/10/31 06:55:00;;;;;;;1.60;1.40;;;;;;;21.43;46.72;101839.16;4193398;28;20064;-68
2022/10/31 06:57:01;;;;;;;4.38;1.77;;;;;;;21.33;46.65;101830.72;4181189;28;20044;-70
2022/10/31 06:59:03;;;;;;;2.92;1.88;;;;;;;21.43;46.65;101841.94;4202944;28;20048;-70
2022/10/31 07:01:04;;;;;;;2.22;1.60;;;;;;;21.42;46.43;101837.50;4213844;28;20035;-68
2022/10/31 07:03:10;;;;;;;2.60;1.83;;;;;;;21.42;46.51;101837.50;4213055;28;20090;-70
2022/10/31 07:05:11;;;;;;;2.33;1.90;;;;;;;21.42;46.41;101832.75;4213690;28;20040;-68
2022/10/31 07:07:12;;;;;;;3.13;1.77;;;;;;;21.42;46.53;101820.78;4209755;28;20187;-68
2022/10/31 07:09:14;;;;;;;2.67;1.88;;;;;;;21.42;46.58;101826.34;4197349;28;20427;-69
2022/10/31 07:11:15;;;;;;;2.63;1.60;;;;;;;21.41;46.65;101819.13;4197156;28;20032;-68
2022/10/31 07:13:21;;;;;;;2.10;1.42;;;;;;;21.27;46.53;101805.56;4197274;28;20037;-68
2022/10/31 07:15:26;;;;;;;3.67;2.00;;;;;;;21.42;46.87;101826.34;4199116;28;20441;-69
2022/10/31 07:17:27;;;;;;;1.88;1.75;;;;;;;21.42;46.70;101820.78;4212357;28;20024;-69
2022/10/31 07:19:29;;;;;;;2.47;1.88;;;;;;;21.43;46.58;101811.31;4196374;28;20036;-69
2022/10/31 07:21:30;;;;;;;2.47;1.70;;;;;;;21.42;46.59;101804.06;4198296;28;20020;-70
2022/10/31 07:23:31;;;;;;;2.78;2.10;;;;;;;21.39;46.90;101804.59;4199772;28;20040;-69
2022/10/31 07:25:33;;;;;;;2.88;1.65;;;;;;;21.41;46.52;101799.63;4196926;28;20049;-69
2022/10/31 07:27:40;;;;;;;2.10;1.60;;;;;;;21.37;46.50;101790.94;4197173;28;20032;-69
2022/10/31 07:29:41;;;;;;;2.60;1.77;;;;;;;21.12;46.62;101738.63;4197212;28;20025;-69
2022/10/31 07:31:43;;;;;;;2.67;2.00;;;;;;;21.41;46.49;101788.47;4198084;28;20102;-70
2022/10/31 07:33:47;;;;;;;2.13;1.70;;;;;;;21.40;46.76;101770.09;4200179;28;20118;-70
2022/10/31 07:35:49;;;;;;;2.50;1.30;;;;;;;21.39;46.68;101776.75;4210794;28;20097;-69
2022/10/31 07:37:52;;;;;;;2.08;1.55;;;;;;;21.39;46.82;101776.75;4201500;28;20045;-68
2022/10/31 07:39:53;;;;;;;2.40;1.60;;;;;;;21.39;46.61;101776.75;4183623;28;20045;-68
2022/10/31 07:42:01;;;;;;;2.45;1.70;;;;;;;21.29;46.74;101764.38;4192709;28;20442;-69
2022/10/31 07:44:02;;;;;;;3.97;2.10;;;;;;;21.37;46.75;101771.47;4199186;28;20036;-68
2022/10/31 07:46:06;;;;;;;5.38;2.20;;;;;;;21.38;46.79;101777.88;4199091;28;20062;-68
2022/10/31 07:48:07;;;;;;;2.42;1.70;;;;;;;21.36;46.61;101775.34;4198984;28;20117;-68
2022/10/31 07:50:11;;;;;;;2.95;1.80;;;;;;;21.37;46.57;101779.81;4199555;28;20109;-68
2022/10/31 07:52:12;;;;;;;1.92;1.73;;;;;;;21.37;46.78;101785.38;4198905;28;20048;-68
2022/10/31 07:54:13;;;;;;;2.03;1.65;;;;;;;21.37;46.46;101776.19;4199633;28;20052;-68
2022/10/31 07:56:15;;;;;;;3.55;1.60;;;;;;;21.38;46.56;101783.44;4198808;28;20049;-68
2022/10/31 07:58:19;;;;;;;2.53;1.90;;;;;;;21.37;46.61;101778.97;4198693;28;20109;-68
2022/10/31 08:00:20;;;;;;;3.17;1.70;;;;;;;21.34;46.84;101771.13;4198914;28;20040;-68
2022/10/31 08:02:21;;;;;;;2.78;2.10;;;;;;;21.36;46.74;101778.13;4199061;28;20471;-68
2022/10/31 08:04:23;;;;;;;2.47;1.88;;;;;;;21.37;46.82;101790.09;4198814;28;20048;-68
2022/10/31 08:06:24;;;;;;;2.00;1.80;;;;;;;21.36;46.82;101789.28;4198291;28;20040;-68
2022/10/31 08:08:28;;;;;;;4.85;2.00;;;;;;;21.35;46.51;101792.28;4199289;28;20045;-68
2022/10/31 08:10:31;;;;;;;2.40;1.73;;;;;;;21.35;46.55;101786.72;4196992;28;20036;-68
2022/10/31 08:12:34;;;;;;;2.70;2.00;;;;;;;21.36;46.53;101788.44;4212243;28;20105;-68
2022/10/31 08:14:36;;;;;;;2.83;1.90;;;;;;;21.31;46.58;101767.78;4198160;28;20032;-69
2022/10/31 08:16:37;;;;;;;5.60;2.17;;;;;;;21.36;46.87;101778.13;4198428;28;20422;-69
2022/10/31 08:18:41;;;;;;;2.47;1.63;;;;;;;21.35;46.72;101775.59;4199212;28;20108;-69
2022/10/31 08:20:43;;;;;;;2.45;1.60;;;;;;;21.33;46.69;101772.25;4199736;28;20101;-69
2022/10/31 08:22:53;;;;;;;2.85;2.10;;;;;;;20.99;46.72;101716.78;4198813;28;20430;-68
2022/10/31 08:24:57;;;;;;;2.88;2.00;;;;;;;21.34;46.46;101777.53;4199379;28;20093;-69
2022/10/31 08:27:01;;;;;;;1.95;1.58;;;;;;;21.26;46.83;101752.97;4198231;28;20028;-69
2022/10/31 08:29:02;;;;;;;2.63;1.75;;;;;;;21.35;46.46;101775.59;4199406;28;20041;-69
2022/10/31 08:31:04;;;;;;;1.85;1.50;;;;;;;21.34;46.60;101765.56;4198133;28;20052;-68
2022/10/31 08:33:18;;;;;;;3.42;1.90;;;;;;;21.34;46.67;101768.34;4196379;28;20105;-69
2022/10/31 08:35:19;;;;;;;2.65;1.70;;;;;;;21.16;46.58;101731.41;4198260;28;20032;-69
2022/10/31 08:37:20;;;;;;;3.20;1.60;;;;;;;21.30;46.51;101762.44;4198681;28;20365;-69
2022/10/31 08:39:21;;;;;;;2.10;1.58;;;;;;;21.33;46.53;101761.13;4197575;28;20058;-69
2022/10/31 08:41:23;;;;;;;3.25;2.03;;;;;;;21.33;46.71;101755.53;4195230;28;20099;-69
2022/10/31 08:43:27;;;;;;;2.15;1.55;;;;;;;21.33;46.89;101761.13;4199437;28;20052;-69
2022/10/31 08:45:30;;;;;;;3.38;1.60;;;;;;;21.33;46.61;101766.69;4198507;28;20020;-69
2022/10/31 08:47:31;;;;;;;2.72;1.65;;;;;;;21.33;46.63;101769.47;4199285;28;20094;-69
2022/10/31 08:49:32;;;;;;;4.30;2.00;;;;;;;20.94;46.59;101708.38;4198945;28;20090;-68
2022/10/31 08:51:33;;;;;;;2.28;1.52;;;;;;;21.31;46.72;101776.16;4199256;28;20427;-68
2022/10/31 08:53:35;;;;;;;2.80;1.63;;;;;;;21.30;46.80;101780.00;4198730;28;20438;-68
2022/10/31 08:55:43;;;;;;;1.80;1.50;;;;;;;21.17;46.73;101751.75;4198528;28;20078;-68
2022/10/31 08:57:47;;;;;;;3.15;1.70;;;;;;;21.30;46.79;101780.00;4198692;28;20525;-68
2022/10/31 08:59:48;;;;;;;2.58;1.95;;;;;;;21.30;46.62;101779.13;4198709;28;20082;-68
2022/10/31 09:01:50;;;;;;;2.42;1.70;;;;;;;21.19;46.79;101767.06;4199051;28;20041;-68
2022/10/31 09:03:51;;;;;;;3.10;1.73;;;;;;;21.30;46.82;101791.13;4198626;28;20114;-69
2022/10/31 09:05:57;;;;;;;2.10;1.63;;;;;;;21.29;46.74;101792.22;4197817;28;20072;-68
2022/10/31 09:08:00;;;;;;;2.67;1.58;;;;;;;21.26;46.65;101784.41;4198412;28;20040;-68
2022/10/31 09:10:01;;;;;;;2.33;1.90;;;;;;;21.30;46.66;101788.34;4197121;28;20464;-69
2022/10/31 09:12:05;;;;;;;1.88;1.60;;;;;;;21.29;46.74;101800.56;4204813;28;20101;-69
2022/10/31 09:14:07;;;;;;;3.90;1.95;;;;;;;21.05;46.80;101758.31;4215348;28;20020;-69
2022/10/31 09:16:08;;;;;;;2.72;1.80;;;;;;;21.29;46.58;101800.56;4214852;28;20085;-69
2022/10/31 09:18:10;;;;;;;2.33;1.70;;;;;;;21.29;46.71;101799.75;4214267;28;20078;-70
2022/10/31 09:20:14;;;;;;;1.85;1.60;;;;;;;21.29;46.65;101802.53;4214922;28;20509;-70
2022/10/31 09:22:16;;;;;;;1.90;1.70;;;;;;;21.12;46.68;101783.16;4215086;28;20066;-69
2022/10/31 09:24:17;;;;;;;1.67;1.58;;;;;;;21.29;46.69;101811.72;4215238;28;20020;-69
2022/10/31 09:26:18;;;;;;;1.63;1.52;;;;;;;21.28;46.72;101812.81;4214809;28;20044;-70
2022/10/31 09:28:21;;;;;;;3.28;1.98;;;;;;;21.27;46.57;101811.16;4214984;28;20093;-70
2022/10/31 09:30:23;;;;;;;2.58;1.55;;;;;;;21.26;46.77;101806.69;4215180;28;20149;-70
2022/10/31 09:32:24;;;;;;;2.75;1.83;;;;;;;21.03;46.55;101765.25;4214797;28;20405;-69
2022/10/31 09:34:28;;;;;;;2.67;1.80;;;;;;;21.12;46.90;101772.03;4201642;28;20045;-70
2022/10/31 09:36:30;;;;;;;2.47;1.83;;;;;;;21.27;46.79;101797.22;4197906;28;20422;-70
2022/10/31 09:38:33;;;;;;;2.55;1.60;;;;;;;21.13;46.77;101772.88;4197945;28;20086;-70
2022/10/31 09:40:42;;;;;;;2.85;2.00;;;;;;;21.27;46.66;101802.78;4198246;28;20491;-70